createdAt,value
2023-04-16T00:02:14.648Z,7.45
2023-04-16T00:04:44.569Z,8.18
2023-04-16T00:07:15.053Z,8.38
2023-04-16T00:09:42.757Z,7.97
2023-04-16T00:12:13.450Z,6.68
2023-04-16T00:14:44.248Z,6.82
2023-04-16T00:17:12.316Z,6.93
2023-04-16T00:20:01.621Z,7.50
2023-04-16T00:22:37.222Z,6.60
2023-04-16T00:28:49.811Z,6.50
2023-04-16T00:31:40.507Z,6.93
2023-04-16T00:34:08.477Z,5.97
2023-04-16T00:36:46.079Z,6.25
2023-04-16T00:39:15.063Z,6.20
2023-04-16T00:41:47.158Z,6.28
2023-04-16T00:44:19.988Z,6.20
2023-04-16T00:46:48.754Z,5.95
2023-04-16T00:49:20.909Z,5.53
2023-04-16T00:52:07.259Z,6.05
2023-04-16T00:54:38.234Z,5.70
2023-04-16T00:57:07.016Z,6.10
2023-04-16T00:59:42.756Z,5.97
2023-04-16T01:02:16.946Z,6.40
2023-04-16T01:04:45.133Z,5.97
2023-04-16T01:07:12.431Z,6.40
2023-04-16T01:09:42.532Z,5.85
2023-04-16T01:12:10.776Z,5.80
2023-04-16T01:14:37.945Z,5.88
2023-04-16T01:17:05.777Z,6.88
2023-04-16T01:19:36.466Z,5.50
2023-04-16T01:22:04.739Z,6.55
2023-04-16T01:24:35.316Z,6.28
2023-04-16T01:27:02.886Z,5.97
2023-04-16T01:29:30.129Z,5.97
2023-04-16T01:31:59.800Z,6.70
2023-04-16T01:34:31.898Z,5.88
2023-04-16T01:36:59.619Z,5.97
2023-04-16T01:39:27.845Z,5.43
2023-04-16T01:41:57.557Z,5.47
2023-04-16T01:44:25.639Z,5.13
2023-04-16T01:46:53.243Z,4.78
2023-04-16T01:49:21.839Z,5.00
2023-04-16T01:51:49.229Z,4.78
2023-04-16T01:54:16.596Z,4.70
2023-04-16T01:56:43.940Z,3.92
2023-04-16T01:59:13.478Z,3.72
2023-04-16T02:01:42.800Z,4.60
2023-04-16T02:04:10.866Z,3.97
2023-04-16T02:06:39.249Z,3.63
2023-04-16T02:09:06.667Z,4.05
2023-04-16T02:11:37.121Z,3.67
2023-04-16T02:14:04.531Z,3.38
2023-04-16T02:16:32.040Z,3.58
2023-04-16T02:19:12.343Z,3.53
2023-04-16T02:21:41.911Z,2.97
2023-04-16T02:24:09.172Z,3.20
2023-04-16T02:26:36.838Z,3.25
2023-04-16T02:29:09.858Z,3.20
2023-04-16T02:31:49.065Z,3.38
2023-04-16T02:34:16.756Z,3.25
2023-04-16T02:36:44.146Z,2.77
2023-04-16T02:39:13.996Z,3.40
2023-04-16T02:41:41.753Z,3.15
2023-04-16T02:44:09.805Z,3.38
2023-04-16T02:46:37.641Z,3.05
2023-04-16T02:49:05.062Z,3.42
2023-04-16T02:51:34.715Z,3.55
2023-04-16T02:54:03.965Z,3.72
2023-04-16T02:56:32.918Z,3.53
2023-04-16T02:59:00.320Z,3.28
2023-04-16T03:01:28.737Z,3.30
2023-04-16T03:03:59.127Z,3.50
2023-04-16T03:06:27.513Z,2.70
2023-04-16T03:08:55.504Z,3.08
2023-04-16T03:11:22.804Z,2.93
2023-04-16T03:13:50.244Z,2.95
2023-04-16T03:16:20.897Z,3.35
2023-04-16T03:18:48.688Z,3.00
2023-04-16T03:21:37.132Z,2.83
2023-04-16T03:24:04.860Z,3.20
2023-04-16T03:26:34.099Z,3.05
2023-04-16T03:29:04.658Z,3.20
2023-04-16T03:31:33.139Z,2.83
2023-04-16T03:34:00.679Z,3.50
2023-04-16T03:36:28.084Z,3.17
2023-04-16T03:38:55.522Z,3.00
2023-04-16T03:41:23.896Z,3.65
2023-04-16T03:43:51.389Z,3.40
2023-04-16T03:46:19.199Z,3.47
2023-04-16T03:48:46.774Z,3.35
2023-04-16T03:51:14.323Z,3.25
2023-04-16T03:53:41.786Z,2.87
2023-04-16T03:56:10.046Z,3.38
2023-04-16T03:58:37.990Z,3.20
2023-04-16T04:01:05.776Z,2.90
2023-04-16T04:03:33.128Z,3.55
2023-04-16T04:06:01.319Z,3.40
2023-04-16T04:08:30.897Z,3.50
2023-04-16T04:10:58.344Z,3.47
2023-04-16T04:13:26.196Z,3.63
2023-04-16T04:15:54.432Z,3.55
2023-04-16T04:18:25.095Z,3.70
2023-04-16T04:20:52.859Z,3.90
2023-04-16T04:23:24.001Z,4.22
2023-04-16T04:25:51.391Z,3.72
2023-04-16T04:28:19.101Z,3.50
2023-04-16T04:30:46.632Z,3.30
2023-04-16T04:33:14.213Z,3.60
2023-04-16T04:35:42.565Z,3.70
2023-04-16T04:38:10.046Z,4.47
2023-04-16T04:40:37.823Z,4.07
2023-04-16T04:43:07.854Z,4.57
2023-04-16T04:45:35.704Z,4.22
2023-04-16T04:48:05.593Z,4.53
2023-04-16T04:50:33.140Z,4.10
2023-04-16T04:53:00.886Z,4.18
2023-04-16T04:55:28.266Z,4.50
2023-04-16T04:57:56.574Z,4.57
2023-04-16T05:00:24.077Z,4.65
2023-04-16T05:02:54.970Z,5.00
2023-04-16T05:05:22.530Z,5.20
2023-04-16T05:07:50.037Z,5.82
2023-04-16T05:10:17.720Z,5.72
2023-04-16T05:12:48.238Z,6.47
2023-04-16T05:15:16.767Z,4.93
2023-04-16T05:17:44.465Z,5.88
2023-04-16T05:20:12.100Z,5.53
2023-04-16T05:22:39.550Z,6.22
2023-04-16T05:25:07.079Z,5.65
2023-04-16T05:27:36.437Z,5.75
2023-04-16T05:30:04.798Z,5.97
2023-04-16T05:32:34.223Z,6.35
2023-04-16T05:35:03.452Z,6.00
2023-04-16T05:37:30.931Z,5.82
2023-04-16T05:40:01.336Z,6.32
2023-04-16T05:44:59.096Z,5.30
2023-04-16T05:47:26.665Z,6.35
2023-04-16T05:49:54.243Z,6.63
2023-04-16T05:52:24.560Z,6.18
2023-04-16T05:54:56.000Z,6.40
2023-04-16T05:57:23.447Z,6.57
2023-04-16T05:59:51.845Z,6.30
2023-04-16T06:02:20.528Z,7.35
2023-04-16T06:04:50.129Z,6.60
2023-04-16T06:07:17.691Z,5.97
2023-04-16T06:09:46.255Z,7.18
2023-04-16T06:12:13.908Z,7.00
2023-04-16T06:14:41.896Z,7.07
2023-04-16T06:17:09.470Z,6.50
2023-04-16T06:19:37.292Z,6.38
2023-04-16T06:22:06.994Z,7.10
2023-04-16T06:24:34.990Z,7.03
2023-04-16T06:27:02.950Z,7.80
2023-04-16T06:29:40.395Z,6.88
2023-04-16T06:32:08.832Z,7.20
2023-04-16T06:34:38.334Z,7.80
2023-04-16T06:37:10.330Z,7.40
2023-04-16T06:39:41.752Z,7.40
2023-04-16T06:42:09.627Z,6.50
2023-04-16T06:44:39.142Z,6.15
2023-04-16T06:47:09.387Z,6.20
2023-04-16T06:49:37.522Z,6.85
2023-04-16T06:52:06.204Z,6.93
2023-04-16T06:54:34.940Z,7.25
2023-04-16T06:57:02.784Z,7.07
2023-04-16T06:59:35.146Z,7.03
2023-04-16T07:02:04.171Z,6.95
2023-04-16T07:04:31.691Z,6.90
2023-04-16T07:07:00.159Z,6.50
2023-04-16T07:09:27.826Z,6.68
2023-04-16T07:12:07.486Z,6.00
2023-04-16T07:14:59.954Z,6.28
2023-04-16T07:17:28.454Z,5.75
2023-04-16T07:20:13.747Z,6.45
2023-04-16T07:22:49.107Z,6.18
2023-04-16T07:25:27.331Z,5.18
2023-04-16T07:28:01.966Z,5.22
2023-04-16T07:30:34.696Z,5.35
2023-04-16T07:33:06.580Z,5.13
2023-04-16T07:35:56.151Z,5.35
2023-04-16T07:38:42.409Z,5.95
2023-04-16T07:41:10.130Z,4.95
2023-04-16T07:43:37.507Z,5.32
2023-04-16T07:46:05.031Z,5.80
2023-04-16T07:48:34.522Z,5.95
2023-04-16T07:51:01.896Z,5.20
2023-04-16T07:53:34.395Z,5.82
2023-04-16T07:56:01.840Z,5.53
2023-04-16T07:58:29.132Z,5.32
2023-04-16T08:00:56.514Z,5.50
2023-04-16T08:03:26.233Z,5.15
2023-04-16T08:05:53.803Z,5.10
2023-04-16T08:08:21.877Z,5.68
2023-04-16T08:10:49.806Z,5.45
2023-04-16T08:13:17.291Z,6.07
2023-04-16T08:15:47.533Z,5.85
2023-04-16T08:20:43.452Z,5.20
2023-04-16T08:23:13.518Z,5.38
2023-04-16T08:28:11.158Z,4.88
2023-04-16T08:30:38.968Z,5.00
2023-04-16T08:33:06.500Z,5.55
2023-04-16T08:35:36.529Z,5.53
2023-04-16T08:38:05.121Z,6.25
2023-04-16T08:40:34.722Z,5.35
2023-04-16T08:43:02.027Z,5.40
2023-04-16T08:45:29.826Z,5.28
2023-04-16T08:47:57.313Z,4.53
2023-04-16T08:50:25.664Z,4.82
2023-04-16T08:52:54.321Z,4.82
2023-04-16T08:55:31.564Z,4.97
2023-04-16T08:57:59.102Z,4.90
2023-04-16T09:00:50.329Z,4.63
2023-04-16T09:03:36.522Z,4.45
2023-04-16T09:06:07.106Z,4.55
2023-04-16T09:11:06.546Z,4.13
2023-04-16T09:13:35.529Z,3.78
2023-04-16T09:16:02.929Z,3.80
2023-04-16T09:18:31.266Z,3.70
2023-04-16T09:20:58.649Z,4.13
2023-04-16T09:23:26.300Z,4.38
2023-04-16T09:25:53.739Z,4.05
2023-04-16T09:28:47.242Z,4.00
2023-04-16T09:31:18.624Z,2.95
2023-04-16T09:34:04.782Z,3.17
2023-04-16T09:36:32.857Z,3.25
2023-04-16T09:39:00.594Z,3.38
2023-04-16T09:41:29.365Z,3.10
2023-04-16T09:43:57.841Z,3.13
2023-04-16T09:46:43.568Z,2.92
2023-04-16T09:49:17.776Z,2.72
2023-04-16T09:51:47.367Z,3.20
2023-04-16T09:54:18.634Z,3.40
2023-04-16T09:56:47.555Z,3.10
2023-04-16T09:59:18.926Z,2.70
2023-04-16T10:01:49.964Z,2.90
2023-04-16T10:04:17.657Z,2.22
2023-04-16T10:06:52.070Z,2.15
2023-04-16T10:09:19.616Z,2.15
2023-04-16T10:11:47.397Z,2.08
2023-04-16T10:14:14.718Z,2.25
2023-04-16T10:16:41.901Z,2.38
2023-04-16T10:19:09.380Z,2.65
2023-04-16T10:21:36.789Z,2.17
2023-04-16T10:24:04.850Z,2.15
2023-04-16T10:26:31.998Z,1.98
2023-04-16T10:29:05.297Z,2.33
2023-04-16T10:31:34.730Z,2.22
2023-04-16T10:34:02.013Z,2.00
2023-04-16T10:36:30.087Z,1.80
2023-04-16T10:38:59.572Z,2.00
2023-04-16T10:41:27.112Z,2.00
2023-04-16T10:43:56.531Z,1.60
2023-04-16T10:46:31.546Z,2.08
2023-04-16T10:49:23.705Z,1.90
2023-04-16T10:52:14.490Z,1.65
2023-04-16T10:54:41.982Z,1.70
2023-04-16T10:57:10.579Z,1.88
2023-04-16T10:59:39.138Z,2.00
2023-04-16T11:02:20.482Z,1.70
2023-04-16T11:04:51.382Z,1.90
2023-04-16T11:07:24.102Z,1.40
2023-04-16T11:09:59.661Z,1.65
2023-04-16T11:15:52.340Z,1.23
2023-04-16T11:18:20.282Z,1.80
2023-04-16T11:20:47.568Z,1.48
2023-04-16T11:23:14.867Z,1.67
2023-04-16T11:25:44.019Z,1.60
2023-04-16T11:28:11.321Z,1.80
2023-04-16T11:30:39.575Z,1.55
2023-04-16T11:33:09.671Z,1.65
2023-04-16T11:43:18.647Z,1.42
2023-04-16T11:46:24.505Z,1.50
2023-04-16T11:48:54.557Z,1.58
2023-04-16T11:51:27.524Z,2.03
2023-04-16T11:54:53.594Z,1.65
2023-04-16T11:57:30.948Z,1.70
2023-04-16T12:00:02.532Z,1.33
2023-04-16T12:02:47.250Z,1.65
2023-04-16T12:05:39.732Z,1.55
2023-04-16T12:08:11.796Z,1.77
2023-04-16T12:10:54.096Z,2.00
2023-04-16T12:13:21.364Z,1.50
2023-04-16T12:15:56.147Z,1.80
2023-04-16T12:18:27.233Z,2.00
2023-04-16T12:20:54.834Z,1.85
2023-04-16T12:23:29.264Z,1.60
2023-04-16T12:25:59.884Z,1.33
2023-04-16T12:28:36.172Z,1.50
2023-04-16T12:31:06.553Z,1.50
2023-04-16T12:33:36.637Z,1.40
2023-04-16T12:36:18.838Z,1.73
2023-04-16T12:38:46.303Z,1.40
2023-04-16T12:41:13.523Z,1.50
2023-04-16T12:43:41.180Z,1.42
2023-04-16T12:46:11.548Z,1.40
2023-04-16T12:48:38.869Z,1.77
2023-04-16T12:51:07.007Z,2.03
2023-04-16T12:53:34.835Z,1.77
2023-04-16T12:56:05.096Z,1.50
2023-04-16T12:58:32.904Z,1.60
2023-04-16T13:01:00.415Z,1.65
2023-04-16T13:03:27.837Z,1.70
2023-04-16T13:05:57.183Z,1.60
2023-04-16T13:08:24.570Z,1.63
2023-04-16T13:10:51.752Z,1.90
2023-04-16T13:13:20.122Z,1.70
2023-04-16T13:15:48.017Z,1.70
2023-04-16T13:18:15.466Z,1.73
2023-04-16T13:20:42.753Z,1.77
2023-04-16T13:23:10.378Z,1.40
2023-04-16T13:25:37.538Z,1.60
2023-04-16T13:28:05.132Z,1.38
2023-04-16T13:30:33.861Z,1.60
2023-04-16T13:33:01.221Z,1.58
2023-04-16T13:35:29.207Z,1.83
2023-04-16T13:37:56.975Z,1.60
2023-04-16T13:40:24.303Z,1.50
2023-04-16T13:42:51.892Z,1.70
2023-04-16T13:45:20.858Z,1.58
2023-04-16T13:47:48.378Z,1.33
2023-04-16T13:50:15.933Z,3.15
2023-04-16T13:52:43.241Z,1.67
2023-04-16T13:55:10.740Z,1.73
2023-04-16T13:57:38.098Z,1.45
2023-04-16T14:00:05.893Z,1.80
2023-04-16T14:02:33.774Z,1.60
2023-04-16T14:05:01.247Z,1.90
2023-04-16T14:07:29.388Z,1.63
2023-04-16T14:09:56.638Z,1.52
2023-04-16T14:12:23.988Z,1.60
2023-04-16T14:14:51.303Z,1.70
2023-04-16T14:17:19.093Z,1.45
2023-04-16T14:19:46.556Z,1.42
2023-04-16T14:22:17.788Z,1.30
2023-04-16T14:24:45.128Z,1.67
2023-04-16T14:27:12.907Z,1.70
2023-04-16T14:29:40.226Z,1.50
2023-04-16T14:32:07.958Z,1.42
2023-04-16T14:34:35.455Z,1.38
2023-04-16T14:37:08.672Z,1.40
2023-04-16T14:39:39.571Z,1.30
2023-04-16T14:42:07.637Z,1.38
2023-04-16T14:44:35.601Z,1.50
2023-04-16T14:47:03.884Z,1.33
2023-04-16T14:49:47.911Z,1.40
2023-04-16T14:52:15.545Z,1.23
2023-04-16T14:54:42.887Z,1.40
2023-04-16T14:57:10.811Z,1.58
2023-04-16T14:59:38.397Z,1.20
2023-04-16T15:02:13.499Z,1.20
2023-04-16T15:05:04.520Z,1.30
2023-04-16T15:07:33.275Z,1.40
2023-04-16T15:10:01.045Z,1.35
2023-04-16T15:12:31.412Z,1.50
2023-04-16T15:15:00.311Z,1.30
2023-04-16T15:17:28.281Z,1.37
2023-04-16T15:19:55.817Z,1.08
2023-04-16T15:22:23.490Z,1.80
2023-04-16T15:24:51.027Z,1.50
2023-04-16T15:27:21.967Z,1.20
2023-04-16T15:29:54.404Z,1.70
2023-04-16T15:32:29.684Z,1.60
2023-04-16T15:34:57.154Z,1.30
2023-04-16T15:37:24.536Z,1.30
2023-04-16T15:39:51.809Z,1.08
2023-04-16T15:42:19.209Z,1.35
2023-04-16T15:44:46.450Z,1.35
2023-04-16T15:47:14.339Z,1.25
2023-04-16T15:49:42.641Z,1.20
2023-04-16T15:52:11.561Z,1.10
2023-04-16T15:54:39.084Z,1.40
2023-04-16T15:57:06.859Z,1.30
2023-04-16T15:59:37.077Z,1.27
2023-04-16T16:02:04.753Z,1.20
2023-04-16T16:04:32.224Z,1.83
2023-04-16T16:07:00.339Z,1.63
2023-04-16T16:09:28.257Z,1.38
2023-04-16T16:12:00.148Z,1.33
2023-04-16T16:14:31.442Z,1.20
2023-04-16T16:16:58.798Z,1.40
2023-04-16T16:19:26.344Z,1.50
2023-04-16T16:21:53.631Z,1.13
2023-04-16T16:24:21.184Z,1.15
2023-04-16T16:26:48.431Z,1.38
2023-04-16T16:29:15.832Z,1.40
2023-04-16T16:31:43.226Z,1.52
2023-04-16T16:34:17.107Z,1.30
2023-04-16T16:36:48.171Z,1.00
2023-04-16T16:39:16.159Z,1.02
2023-04-16T16:41:43.395Z,1.23
2023-04-16T16:44:10.807Z,1.38
2023-04-16T16:46:38.666Z,1.20
2023-04-16T16:49:07.034Z,1.40
2023-04-16T16:51:37.625Z,1.20
2023-04-16T16:54:04.816Z,1.38
2023-04-16T16:56:32.023Z,1.33
2023-04-16T16:59:01.536Z,1.10
2023-04-16T17:01:30.099Z,1.40
2023-04-16T17:03:57.582Z,1.60
2023-04-16T17:06:25.310Z,1.48
2023-04-16T17:08:53.397Z,1.70
2023-04-16T17:11:20.987Z,1.50
2023-04-16T17:13:48.622Z,1.23
2023-04-16T17:16:17.776Z,1.35
2023-04-16T17:18:45.339Z,1.30
2023-04-16T17:21:15.943Z,1.65
2023-04-16T17:23:43.982Z,1.88
2023-04-16T17:26:17.416Z,1.70
2023-04-16T17:28:46.105Z,1.30
2023-04-16T17:31:13.540Z,1.38
2023-04-16T17:33:41.016Z,1.45
2023-04-16T17:36:08.466Z,1.40
2023-04-16T17:38:35.663Z,1.10
2023-04-16T17:41:03.284Z,1.45
2023-04-16T17:43:31.109Z,1.48
2023-04-16T17:45:58.470Z,1.38
2023-04-16T17:48:26.116Z,1.65
2023-04-16T17:50:53.556Z,1.35
2023-04-16T17:53:20.875Z,1.33
2023-04-16T17:55:56.713Z,1.33
2023-04-16T17:58:26.678Z,1.20
2023-04-16T18:01:07.489Z,1.27
2023-04-16T18:03:38.520Z,1.15
2023-04-16T18:06:06.438Z,1.55
2023-04-16T18:08:37.047Z,1.30
2023-04-16T18:11:08.739Z,1.20
2023-04-16T18:13:35.957Z,1.27
2023-04-16T18:16:03.971Z,1.15
2023-04-16T18:18:31.439Z,1.10
2023-04-16T18:20:58.734Z,1.30
2023-04-16T18:23:26.177Z,1.20
2023-04-16T18:25:54.547Z,1.27
2023-04-16T18:28:21.973Z,1.10
2023-04-16T18:30:49.630Z,1.25
2023-04-16T18:35:47.677Z,2.53
2023-04-16T18:38:15.091Z,2.30
2023-04-16T18:40:42.775Z,3.10
2023-04-16T18:43:10.203Z,2.22
2023-04-16T18:45:37.666Z,1.45
2023-04-16T18:48:05.066Z,1.30
2023-04-16T18:50:32.932Z,1.25
2023-04-16T18:53:00.141Z,1.50
2023-04-16T18:55:27.755Z,1.48
2023-04-16T18:58:07.107Z,1.80
2023-04-16T19:00:37.894Z,1.83
2023-04-16T19:03:08.240Z,2.08
2023-04-16T19:05:42.070Z,1.73
2023-04-16T19:08:12.873Z,1.70
2023-04-16T19:10:40.584Z,1.20
2023-04-16T19:13:16.335Z,1.73
2023-04-16T19:15:44.447Z,1.90
2023-04-16T19:18:11.868Z,2.33
2023-04-16T19:20:39.851Z,2.35
2023-04-16T19:23:09.696Z,2.22
2023-04-16T19:25:40.973Z,2.83
2023-04-16T19:28:11.934Z,2.95
2023-04-16T19:30:40.419Z,2.35
2023-04-16T19:33:07.674Z,2.25
2023-04-16T19:35:35.024Z,2.10
2023-04-16T19:38:03.986Z,1.52
2023-04-16T19:40:31.162Z,2.15
2023-04-16T19:42:58.473Z,2.30
2023-04-16T19:45:27.302Z,2.13
2023-04-16T19:47:54.812Z,2.30
2023-04-16T19:50:22.182Z,2.17
2023-04-16T19:52:49.488Z,2.28
2023-04-16T19:55:16.816Z,1.92
2023-04-16T19:57:44.461Z,2.35
2023-04-16T20:00:12.151Z,2.30
2023-04-16T20:02:39.492Z,2.33
2023-04-16T20:05:07.131Z,1.90
2023-04-16T20:07:34.751Z,2.20
2023-04-16T20:10:04.173Z,1.95
2023-04-16T20:12:31.655Z,1.90
2023-04-16T20:15:00.132Z,1.95
2023-04-16T20:17:27.333Z,1.90
2023-04-16T20:20:01.072Z,2.25
2023-04-16T20:22:30.634Z,1.73
2023-04-16T20:24:58.600Z,2.00
2023-04-16T20:27:28.896Z,1.92
2023-04-16T20:29:56.547Z,2.03
2023-04-16T20:32:25.951Z,2.20
2023-04-16T20:35:11.390Z,2.25
2023-04-16T20:37:38.927Z,1.80
2023-04-16T20:40:08.492Z,2.08
2023-04-16T20:42:35.912Z,1.98
2023-04-16T20:45:03.065Z,2.30
2023-04-16T20:47:35.211Z,2.00
2023-04-16T20:50:04.095Z,2.20
2023-04-16T20:52:31.774Z,2.03
2023-04-16T20:54:59.280Z,2.08
2023-04-16T20:57:28.375Z,2.08
2023-04-16T20:59:55.936Z,2.22
2023-04-16T21:02:24.837Z,1.88
2023-04-16T21:04:52.531Z,2.00
2023-04-16T21:07:20.002Z,2.40
2023-04-16T21:09:47.354Z,1.90
2023-04-16T21:12:14.949Z,1.80
2023-04-16T21:14:42.068Z,2.17
2023-04-16T21:17:09.247Z,1.92
2023-04-16T21:19:36.493Z,2.05
2023-04-16T21:22:06.476Z,2.00
2023-04-16T21:24:36.324Z,2.00
2023-04-16T21:27:04.144Z,1.88
2023-04-16T21:29:31.699Z,2.00
2023-04-16T21:31:59.214Z,2.10
2023-04-16T21:34:26.505Z,1.90
2023-04-16T21:36:53.932Z,1.77
2023-04-16T21:39:21.990Z,1.90
2023-04-16T21:41:49.918Z,2.08
2023-04-16T21:44:17.117Z,1.70
2023-04-16T21:46:44.730Z,1.83
2023-04-16T21:49:12.181Z,4.70
2023-04-16T21:51:40.642Z,2.00
2023-04-16T21:54:08.217Z,1.70
2023-04-16T21:56:35.389Z,1.95
2023-04-16T21:59:04.849Z,1.80
2023-04-16T22:01:32.820Z,1.73
2023-04-16T22:04:04.616Z,1.73
2023-04-16T22:06:31.856Z,1.83
2023-04-16T22:08:59.080Z,1.80
2023-04-16T22:11:26.331Z,2.25
2023-04-16T22:13:58.110Z,2.05
2023-04-16T22:16:25.868Z,1.92
2023-04-16T22:18:55.663Z,1.98
2023-04-16T22:21:22.910Z,2.25
2023-04-16T22:23:50.218Z,1.83
2023-04-16T22:26:18.071Z,2.50
2023-04-16T22:28:45.325Z,1.90
2023-04-16T22:31:12.770Z,2.13
2023-04-16T22:33:40.041Z,2.05
2023-04-16T22:36:07.438Z,2.40
2023-04-16T22:38:35.315Z,2.28
2023-04-16T22:41:02.917Z,2.38
2023-04-16T22:43:30.058Z,2.65
2023-04-16T22:46:06.994Z,1.90
2023-04-16T22:48:38.279Z,2.22
2023-04-16T22:51:05.815Z,2.33
2023-04-16T22:53:33.779Z,2.63
2023-04-16T22:56:01.184Z,2.30
2023-04-16T22:58:28.579Z,1.92
2023-04-16T23:00:59.561Z,2.08
2023-04-16T23:03:27.539Z,2.30
2023-04-16T23:05:55.782Z,2.13
2023-04-16T23:08:24.146Z,2.20
2023-04-16T23:10:52.323Z,2.75
2023-04-16T23:13:19.568Z,2.42
2023-04-16T23:15:47.640Z,2.33
2023-04-16T23:18:14.789Z,2.10
2023-04-16T23:20:42.209Z,2.00
2023-04-16T23:23:09.593Z,2.40
2023-04-16T23:25:37.018Z,2.13
2023-04-16T23:28:04.980Z,2.40
2023-04-16T23:30:32.866Z,2.30
2023-04-16T23:33:00.367Z,2.42
2023-04-16T23:35:27.824Z,2.15
2023-04-16T23:37:55.269Z,2.60
2023-04-16T23:40:22.604Z,2.50
2023-04-16T23:42:50.267Z,2.92
2023-04-16T23:45:17.770Z,2.40
2023-04-16T23:47:45.016Z,2.53
2023-04-16T23:50:12.390Z,2.33
2023-04-16T23:52:40.080Z,2.80
2023-04-16T23:55:07.487Z,2.70
2023-04-16T23:57:34.632Z,2.30
